createdAt,value
2022-10-03T00:00:03.738Z,99.90
2022-10-03T00:03:16.469Z,99.90
2022-10-03T00:06:30.302Z,99.90
2022-10-03T00:09:16.301Z,99.90
2022-10-03T00:12:18.303Z,99.90
2022-10-03T00:15:16.324Z,99.90
2022-10-03T00:18:23.008Z,99.90
2022-10-03T00:21:21.444Z,99.90
2022-10-03T00:24:20.649Z,99.90
2022-10-03T00:27:16.621Z,99.90
2022-10-03T00:30:18.526Z,99.90
2022-10-03T00:32:58.598Z,99.90
2022-10-03T00:35:39.295Z,99.90
2022-10-03T00:38:34.817Z,99.90
2022-10-03T00:41:44.111Z,99.90
2022-10-03T00:44:57.921Z,99.90
2022-10-03T00:47:50.436Z,99.90
2022-10-03T00:50:51.630Z,99.90
2022-10-03T00:53:55.525Z,99.90
2022-10-03T00:57:07.827Z,99.90
2022-10-03T01:00:18.696Z,99.90
2022-10-03T01:02:52.522Z,99.90
2022-10-03T01:05:32.005Z,99.90
2022-10-03T01:08:27.340Z,99.90
2022-10-03T01:11:19.717Z,99.90
2022-10-03T01:14:39.016Z,99.90
2022-10-03T01:17:49.475Z,99.90
2022-10-03T01:20:34.208Z,99.90
2022-10-03T01:23:33.460Z,99.90
2022-10-03T01:26:46.544Z,99.90
2022-10-03T01:29:44.682Z,99.90
2022-10-03T01:32:29.230Z,99.90
2022-10-03T01:35:22.553Z,99.90
2022-10-03T01:38:14.497Z,99.90
2022-10-03T01:41:36.918Z,99.90
2022-10-03T01:44:30.463Z,99.90
2022-10-03T01:47:31.748Z,99.90
2022-10-03T01:50:35.147Z,99.90
2022-10-03T01:53:30.241Z,99.90
2022-10-03T01:56:38.221Z,99.90
2022-10-03T01:59:29.436Z,99.90
2022-10-03T02:02:30.462Z,99.90
2022-10-03T02:05:23.199Z,99.90
2022-10-03T02:08:09.612Z,99.90
2022-10-03T02:11:04.999Z,99.90
2022-10-03T02:13:36.956Z,99.90
2022-10-03T02:16:20.621Z,99.90
2022-10-03T02:19:00.550Z,99.90
2022-10-03T02:21:32.787Z,99.90
2022-10-03T02:24:15.589Z,99.90
2022-10-03T02:27:13.865Z,99.90
2022-10-03T02:30:09.448Z,99.90
2022-10-03T02:34:01.499Z,99.90
2022-10-03T02:37:28.056Z,99.90
2022-10-03T02:40:28.439Z,99.90
2022-10-03T02:43:20.282Z,99.90
2022-10-03T02:46:40.426Z,99.90
2022-10-03T02:49:26.132Z,99.90
2022-10-03T02:52:30.994Z,99.90
2022-10-03T02:55:39.596Z,99.90
2022-10-03T02:58:38.767Z,99.90
2022-10-03T03:02:00.984Z,99.90
2022-10-03T03:04:46.588Z,99.90
2022-10-03T03:07:52.790Z,99.90
2022-10-03T03:11:08.211Z,99.90
2022-10-03T03:14:25.154Z,99.90
2022-10-03T03:17:18.250Z,99.90
2022-10-03T03:20:10.593Z,99.90
2022-10-03T03:23:13.316Z,99.90
2022-10-03T03:25:53.081Z,99.90
2022-10-03T03:28:46.842Z,99.90
2022-10-03T03:31:55.609Z,99.90
2022-10-03T03:34:43.856Z,99.90
2022-10-03T03:37:42.290Z,99.90
2022-10-03T03:40:45.653Z,99.90
2022-10-03T03:43:32.459Z,99.90
2022-10-03T03:46:26.580Z,99.90
2022-10-03T03:49:31.678Z,99.90
2022-10-03T03:52:21.002Z,99.90
2022-10-03T03:54:51.847Z,99.90
2022-10-03T03:57:45.284Z,99.90
2022-10-03T04:00:21.176Z,99.90
2022-10-03T04:03:05.017Z,99.90
2022-10-03T04:06:05.974Z,99.90
2022-10-03T04:08:52.124Z,99.90
2022-10-03T04:12:12.814Z,99.90
2022-10-03T04:15:05.565Z,99.90
2022-10-03T04:18:12.358Z,99.90
2022-10-03T04:20:56.301Z,99.90
2022-10-03T04:24:01.752Z,99.90
2022-10-03T04:26:53.192Z,99.90
2022-10-03T04:30:02.872Z,99.90
2022-10-03T04:33:10.902Z,99.90
2022-10-03T04:36:21.829Z,99.90
2022-10-03T04:39:15.426Z,99.90
2022-10-03T04:41:55.238Z,99.90
2022-10-03T04:45:18.194Z,99.90
2022-10-03T04:47:53.627Z,99.90
2022-10-03T04:50:57.548Z,99.90
2022-10-03T04:54:07.062Z,99.90
2022-10-03T04:57:05.242Z,99.90
2022-10-03T05:00:24.243Z,99.90
2022-10-03T05:03:00.458Z,99.90
2022-10-03T05:05:42.017Z,99.90
2022-10-03T05:08:37.566Z,99.90
2022-10-03T05:11:39.889Z,99.90
2022-10-03T05:14:28.588Z,99.90
2022-10-03T05:17:19.772Z,99.90
2022-10-03T05:20:25.559Z,99.90
2022-10-03T05:23:26.564Z,99.90
2022-10-03T05:26:50.135Z,99.90
2022-10-03T05:29:48.674Z,99.90
2022-10-03T05:32:57.474Z,99.90
2022-10-03T05:35:59.855Z,99.90
2022-10-03T05:39:19.275Z,99.90
2022-10-03T05:42:29.145Z,99.90
2022-10-03T05:45:31.773Z,99.90
2022-10-03T05:48:27.296Z,99.90
2022-10-03T05:51:27.294Z,99.90
2022-10-03T05:54:32.046Z,99.90
2022-10-03T05:57:21.222Z,99.90
2022-10-03T06:00:21.859Z,99.90
2022-10-03T06:03:48.517Z,99.90
2022-10-03T06:06:59.141Z,99.90
2022-10-03T06:09:36.062Z,99.90
2022-10-03T06:12:34.704Z,99.90
2022-10-03T06:15:39.886Z,99.90
2022-10-03T06:18:25.678Z,99.90
2022-10-03T06:21:23.441Z,99.90
2022-10-03T06:24:25.241Z,99.90
2022-10-03T06:27:17.190Z,99.90
2022-10-03T06:30:16.105Z,99.90
2022-10-03T06:33:26.091Z,99.90
2022-10-03T06:36:49.034Z,99.90
2022-10-03T06:39:35.405Z,99.90
2022-10-03T06:42:56.399Z,99.90
2022-10-03T06:46:02.624Z,99.90
2022-10-03T06:49:36.639Z,99.90
2022-10-03T06:53:11.903Z,99.90
2022-10-03T06:56:19.295Z,99.90
2022-10-03T06:59:23.366Z,99.90
2022-10-03T07:02:44.397Z,99.90
2022-10-03T07:05:49.144Z,99.90
2022-10-03T07:08:47.119Z,99.90
2022-10-03T07:11:28.762Z,99.90
2022-10-03T07:14:36.974Z,99.90
2022-10-03T07:17:44.151Z,99.90
2022-10-03T07:21:16.888Z,99.90
2022-10-03T07:24:15.190Z,99.90
2022-10-03T07:27:45.353Z,99.90
2022-10-03T07:30:28.029Z,99.90
2022-10-03T07:33:20.087Z,99.90
2022-10-03T07:37:12.276Z,99.90
2022-10-03T07:40:10.838Z,99.90
2022-10-03T07:43:38.741Z,99.90
2022-10-03T07:47:20.358Z,99.90
2022-10-03T07:50:28.849Z,99.90
2022-10-03T07:53:31.190Z,99.90
2022-10-03T07:56:20.136Z,99.90
2022-10-03T07:59:16.060Z,99.90
2022-10-03T08:02:08.983Z,99.90
2022-10-03T08:05:25.314Z,99.90
2022-10-03T08:08:24.821Z,99.90
2022-10-03T08:11:23.425Z,99.90
2022-10-03T08:14:24.253Z,99.90
2022-10-03T08:17:48.583Z,99.90
2022-10-03T08:20:50.848Z,99.90
2022-10-03T08:24:02.341Z,99.90
2022-10-03T08:27:29.634Z,99.90
2022-10-03T08:30:22.379Z,99.90
2022-10-03T08:33:33.537Z,99.90
2022-10-03T08:36:45.350Z,99.90
2022-10-03T08:39:43.798Z,99.90
2022-10-03T08:42:44.717Z,99.90
2022-10-03T08:45:52.992Z,99.90
2022-10-03T08:48:53.709Z,99.90
2022-10-03T08:52:12.472Z,99.90
2022-10-03T08:55:21.473Z,99.90
2022-10-03T08:58:51.403Z,99.90
2022-10-03T09:01:41.159Z,99.90
2022-10-03T09:05:12.011Z,99.90
2022-10-03T09:08:52.176Z,99.90
2022-10-03T09:12:10.426Z,99.90
2022-10-03T09:15:21.810Z,99.90
2022-10-03T09:18:22.908Z,99.90
2022-10-03T09:21:26.223Z,99.90
2022-10-03T09:24:14.359Z,99.90
2022-10-03T09:27:12.561Z,99.90
2022-10-03T09:30:07.863Z,99.90
2022-10-03T09:33:22.063Z,99.90
2022-10-03T09:36:41.742Z,99.90
2022-10-03T09:39:43.343Z,99.90
2022-10-03T09:43:10.742Z,99.90
2022-10-03T09:46:34.905Z,99.90
2022-10-03T09:49:58.471Z,99.90
2022-10-03T09:53:21.722Z,99.90
2022-10-03T09:56:44.350Z,99.90
2022-10-03T09:59:36.506Z,99.90
2022-10-03T10:02:40.738Z,99.90
2022-10-03T10:05:48.935Z,99.90
2022-10-03T10:09:01.979Z,99.90
2022-10-03T10:11:41.726Z,99.90
2022-10-03T10:14:29.668Z,99.90
2022-10-03T10:17:30.393Z,99.90
2022-10-03T10:20:27.250Z,99.90
2022-10-03T10:23:39.002Z,99.90
2022-10-03T10:26:12.562Z,99.90
2022-10-03T10:29:08.827Z,99.90
2022-10-03T10:32:04.782Z,99.90
2022-10-03T10:35:19.013Z,99.90
2022-10-03T10:38:35.438Z,99.90
2022-10-03T10:41:30.552Z,99.90
2022-10-03T10:44:47.444Z,99.90
2022-10-03T10:48:21.370Z,99.90
2022-10-03T10:51:29.897Z,99.90
2022-10-03T10:54:36.064Z,99.90
2022-10-03T10:57:40.492Z,99.90
2022-10-03T11:00:35.956Z,99.90
2022-10-03T11:04:03.842Z,99.90
2022-10-03T11:07:12.109Z,99.90
2022-10-03T11:10:01.144Z,99.90
2022-10-03T11:13:18.440Z,99.90
2022-10-03T11:16:38.188Z,99.90
2022-10-03T11:20:10.020Z,99.90
2022-10-03T11:23:28.744Z,99.90
2022-10-03T11:26:40.153Z,99.90
2022-10-03T11:29:38.314Z,99.90
2022-10-03T11:32:43.195Z,99.90
2022-10-03T11:36:13.481Z,99.90
2022-10-03T11:39:01.636Z,99.90
2022-10-03T11:41:52.764Z,99.90
2022-10-03T11:44:41.829Z,99.90
2022-10-03T11:47:39.107Z,99.90
2022-10-03T11:50:57.649Z,99.90
2022-10-03T11:54:00.088Z,99.90
2022-10-03T11:56:52.088Z,99.90
2022-10-03T11:59:29.955Z,99.90
2022-10-03T12:02:24.422Z,99.90
2022-10-03T12:05:06.300Z,99.90
2022-10-03T12:08:14.887Z,99.90
2022-10-03T12:11:07.486Z,99.90
2022-10-03T12:13:44.194Z,99.90
2022-10-03T12:16:32.411Z,99.90
2022-10-03T12:19:30.849Z,99.90
2022-10-03T12:22:19.525Z,99.90
2022-10-03T12:24:50.834Z,99.90
2022-10-03T12:27:26.478Z,99.90
2022-10-03T12:30:04.016Z,99.90
2022-10-03T12:33:03.389Z,99.90
2022-10-03T12:35:52.780Z,99.90
2022-10-03T12:38:38.120Z,99.90
2022-10-03T12:41:55.508Z,99.90
2022-10-03T12:44:35.591Z,99.90
2022-10-03T12:47:55.289Z,99.90
2022-10-03T12:50:57.708Z,99.90
2022-10-03T12:53:49.976Z,99.90
2022-10-03T12:56:28.627Z,99.90
2022-10-03T12:59:25.053Z,99.90
2022-10-03T13:02:23.004Z,99.90
2022-10-03T13:05:32.954Z,99.90
2022-10-03T13:08:37.465Z,99.90
2022-10-03T13:11:25.819Z,99.90
2022-10-03T13:14:21.696Z,99.90
2022-10-03T13:17:41.323Z,99.30
2022-10-03T13:20:45.646Z,98.00
2022-10-03T13:23:54.777Z,97.30
2022-10-03T13:26:49.618Z,97.60
2022-10-03T13:29:42.609Z,98.20
2022-10-03T13:32:29.176Z,97.50
2022-10-03T13:35:43.536Z,96.30
2022-10-03T13:38:52.676Z,96.70
2022-10-03T13:41:42.998Z,97.30
2022-10-03T13:44:37.859Z,97.00
2022-10-03T13:47:30.056Z,97.70
2022-10-03T13:50:12.990Z,96.60
2022-10-03T13:52:55.307Z,95.70
2022-10-03T13:55:58.036Z,95.40
2022-10-03T13:58:44.107Z,95.70
2022-10-03T14:01:45.019Z,95.00
2022-10-03T14:05:18.629Z,96.20
2022-10-03T14:08:28.902Z,97.30
2022-10-03T14:11:14.904Z,95.30
2022-10-03T14:14:35.556Z,95.50
2022-10-03T14:17:54.499Z,96.10
2022-10-03T14:21:10.956Z,94.60
2022-10-03T14:23:50.782Z,93.70
2022-10-03T14:27:28.994Z,94.40
2022-10-03T14:30:25.687Z,92.70
2022-10-03T14:33:13.150Z,93.40
2022-10-03T14:36:02.290Z,93.30
2022-10-03T14:39:02.087Z,93.60
2022-10-03T14:41:33.020Z,93.20
2022-10-03T14:44:22.714Z,92.70
2022-10-03T14:47:08.282Z,93.60
2022-10-03T14:49:56.445Z,93.10
2022-10-03T14:53:04.780Z,95.10
2022-10-03T14:55:46.280Z,96.80
2022-10-03T14:58:23.275Z,95.00
2022-10-03T15:01:03.570Z,93.80
2022-10-03T15:03:39.879Z,92.90
2022-10-03T15:06:10.771Z,92.40
2022-10-03T15:08:54.253Z,92.50
2022-10-03T15:11:33.031Z,92.60
2022-10-03T15:14:10.263Z,92.50
2022-10-03T15:16:54.530Z,92.80
2022-10-03T15:19:47.830Z,92.80
2022-10-03T15:22:32.773Z,93.00
2022-10-03T15:25:17.859Z,93.70
2022-10-03T15:27:56.714Z,93.70
2022-10-03T15:30:32.151Z,93.50
2022-10-03T15:33:17.283Z,93.60
2022-10-03T15:35:55.471Z,93.10
2022-10-03T15:38:41.240Z,93.80
2022-10-03T15:41:16.725Z,94.90
2022-10-03T15:43:50.893Z,95.20
2022-10-03T15:46:44.314Z,95.20
2022-10-03T15:49:39.802Z,95.80
2022-10-03T15:52:25.842Z,95.70
2022-10-03T15:55:12.598Z,96.30
2022-10-03T15:57:47.825Z,96.20
2022-10-03T16:00:28.702Z,96.00
2022-10-03T16:03:16.450Z,96.30
2022-10-03T16:06:14.998Z,96.70
2022-10-03T16:09:08.117Z,96.90
2022-10-03T16:11:48.633Z,96.70
2022-10-03T16:14:28.796Z,96.80
2022-10-03T16:17:20.814Z,96.90
2022-10-03T16:20:01.323Z,97.00
2022-10-03T16:22:45.906Z,97.80
2022-10-03T16:25:22.915Z,97.70
2022-10-03T16:28:08.180Z,97.20
2022-10-03T16:31:18.254Z,97.50
2022-10-03T16:34:18.821Z,97.60
2022-10-03T16:36:50.899Z,98.20
2022-10-03T16:39:36.673Z,98.40
2022-10-03T16:42:16.370Z,98.50
2022-10-03T16:44:55.389Z,99.00
2022-10-03T16:47:39.163Z,99.70
2022-10-03T16:50:24.866Z,99.90
2022-10-03T16:52:59.084Z,99.90
2022-10-03T16:55:37.217Z,99.90
2022-10-03T16:58:30.046Z,99.90
2022-10-03T17:01:27.273Z,99.90
2022-10-03T17:04:29.448Z,99.90
2022-10-03T17:07:04.730Z,99.90
2022-10-03T17:09:46.193Z,99.90
2022-10-03T17:12:32.095Z,99.90
2022-10-03T17:15:24.762Z,99.90
2022-10-03T17:18:40.574Z,99.90
2022-10-03T17:21:28.889Z,99.90
2022-10-03T17:24:19.052Z,99.90
2022-10-03T17:26:54.260Z,99.90
2022-10-03T17:29:47.527Z,99.90
2022-10-03T17:32:35.424Z,99.90
2022-10-03T17:35:06.859Z,99.90
2022-10-03T17:38:24.951Z,99.90
2022-10-03T17:41:21.527Z,99.90
2022-10-03T17:44:28.304Z,99.90
2022-10-03T17:47:19.110Z,99.90
2022-10-03T17:50:04.264Z,99.90
2022-10-03T17:52:40.923Z,99.90
2022-10-03T17:55:28.110Z,99.90
2022-10-03T17:58:29.836Z,99.90
2022-10-03T18:01:11.389Z,99.90
2022-10-03T18:04:15.222Z,99.90
2022-10-03T18:06:53.346Z,99.90
2022-10-03T18:09:35.187Z,99.90
2022-10-03T18:12:42.175Z,99.90
2022-10-03T18:15:42.539Z,99.90
2022-10-03T18:18:46.104Z,99.90
2022-10-03T18:21:32.541Z,99.90
2022-10-03T18:24:37.880Z,99.90
2022-10-03T18:27:34.353Z,99.90
2022-10-03T18:30:27.731Z,99.90
2022-10-03T18:33:01.529Z,99.90
2022-10-03T18:35:36.541Z,99.90
2022-10-03T18:38:21.507Z,99.90
2022-10-03T18:40:58.982Z,99.90
2022-10-03T18:43:45.170Z,99.90
2022-10-03T18:46:26.025Z,99.90
2022-10-03T18:49:30.068Z,99.90
2022-10-03T18:52:07.008Z,99.90
2022-10-03T18:55:00.009Z,99.90
2022-10-03T18:57:37.993Z,99.90
2022-10-03T19:00:28.331Z,99.90
2022-10-03T19:03:13.735Z,99.90
2022-10-03T19:05:48.952Z,99.90
2022-10-03T19:08:25.480Z,99.90
2022-10-03T19:11:24.239Z,99.90
2022-10-03T19:14:22.482Z,99.90
2022-10-03T19:17:22.360Z,99.90
2022-10-03T19:19:59.003Z,99.90
2022-10-03T19:22:39.997Z,99.90
2022-10-03T19:25:22.238Z,99.90
2022-10-03T19:28:01.170Z,99.90
2022-10-03T19:30:33.282Z,99.90
2022-10-03T19:33:22.083Z,99.90
2022-10-03T19:35:59.531Z,99.90
2022-10-03T19:38:40.344Z,99.90
2022-10-03T19:41:31.321Z,99.90
2022-10-03T19:44:14.838Z,99.90
2022-10-03T19:47:21.049Z,99.90
2022-10-03T19:50:21.088Z,99.90
2022-10-03T19:52:52.710Z,99.90
2022-10-03T19:55:39.039Z,99.90
2022-10-03T19:58:26.724Z,99.90
2022-10-03T20:00:59.521Z,99.90
2022-10-03T20:04:05.139Z,99.90
2022-10-03T20:06:40.998Z,99.90
2022-10-03T20:09:27.594Z,99.90
2022-10-03T20:12:07.032Z,99.90
2022-10-03T20:14:41.899Z,99.90
2022-10-03T20:17:22.174Z,99.90
2022-10-03T20:20:04.977Z,99.90
2022-10-03T20:22:37.495Z,99.90
2022-10-03T20:25:36.307Z,99.90
2022-10-03T20:28:17.736Z,99.90
2022-10-03T20:30:52.851Z,99.90
2022-10-03T20:33:30.870Z,99.90
2022-10-03T20:36:17.803Z,99.90
2022-10-03T20:39:00.742Z,99.90
2022-10-03T20:41:56.370Z,99.90
2022-10-03T20:44:51.713Z,99.90
2022-10-03T20:47:52.810Z,99.90
2022-10-03T20:50:46.846Z,99.90
2022-10-03T20:53:25.564Z,99.90
2022-10-03T20:56:09.726Z,99.90
2022-10-03T20:58:54.087Z,99.90
2022-10-03T21:01:31.474Z,99.90
2022-10-03T21:04:16.119Z,99.90
2022-10-03T21:07:28.029Z,99.90
2022-10-03T21:10:28.107Z,99.90
2022-10-03T21:13:21.171Z,99.90
2022-10-03T21:15:57.813Z,99.90
2022-10-03T21:18:40.531Z,99.90
2022-10-03T21:21:30.422Z,99.90
2022-10-03T21:24:26.928Z,99.90
2022-10-03T21:27:06.703Z,99.90
2022-10-03T21:29:38.942Z,99.90
2022-10-03T21:32:40.176Z,99.90
2022-10-03T21:35:24.391Z,99.90
2022-10-03T21:38:19.642Z,99.90
2022-10-03T21:41:35.164Z,99.90
2022-10-03T21:44:29.183Z,99.90
2022-10-03T21:47:22.214Z,99.90
2022-10-03T21:49:58.630Z,99.90
2022-10-03T21:52:55.135Z,99.90
2022-10-03T21:55:52.797Z,99.90
2022-10-03T21:58:56.850Z,99.90
2022-10-03T22:01:53.923Z,99.90
2022-10-03T22:04:49.650Z,99.90
2022-10-03T22:07:41.572Z,99.90
2022-10-03T22:10:29.909Z,99.90
2022-10-03T22:13:08.634Z,99.90
2022-10-03T22:16:19.053Z,99.90
2022-10-03T22:19:20.317Z,99.90
2022-10-03T22:22:20.661Z,99.90
2022-10-03T22:25:47.965Z,99.90
2022-10-03T22:28:42.036Z,99.90
2022-10-03T22:31:31.796Z,99.90
2022-10-03T22:34:29.816Z,99.90
2022-10-03T22:37:01.685Z,99.90
2022-10-03T22:39:35.695Z,99.90
2022-10-03T22:42:07.033Z,99.90
2022-10-03T22:44:43.516Z,99.90
2022-10-03T22:47:26.374Z,99.90
2022-10-03T22:50:03.924Z,99.90
2022-10-03T22:52:41.054Z,99.90
2022-10-03T22:55:16.088Z,99.90
2022-10-03T22:57:47.816Z,99.90
2022-10-03T23:00:28.682Z,99.90
2022-10-03T23:03:06.434Z,99.90
2022-10-03T23:06:11.603Z,99.90
2022-10-03T23:09:07.682Z,99.90
2022-10-03T23:11:40.226Z,99.90
2022-10-03T23:14:22.833Z,99.90
2022-10-03T23:17:13.776Z,99.90
2022-10-03T23:20:28.039Z,99.90
2022-10-03T23:23:03.944Z,99.90
2022-10-03T23:25:52.450Z,99.90
2022-10-03T23:28:40.169Z,99.90
2022-10-03T23:31:53.374Z,99.90
2022-10-03T23:34:36.179Z,99.90
2022-10-03T23:37:15.459Z,99.90
2022-10-03T23:39:55.454Z,99.90
2022-10-03T23:42:32.503Z,99.90
2022-10-03T23:45:14.128Z,99.90
2022-10-03T23:48:06.881Z,99.90
2022-10-03T23:50:52.928Z,99.90
2022-10-03T23:53:32.541Z,99.90
2022-10-03T23:56:08.016Z,99.90
2022-10-03T23:58:39.408Z,99.90
